KCIC/CIC METAR and TAF weather

Enter ICAO airport designator
Station Type Date Time Source
KCIC METAR 2018/01/24 07:15 UTC NOAA

KCIC 240715Z AUTO 00000KT 10SM OVC028 09/07 A3018 RMK AO1


Station Type Date Time Source
KCIC Decoded METAR 2018/01/24 07:15 UTC NOAA

Chico Municipal , CA, United States (KCIC) 39-48N 121-51W
Jan 24, 2018 - 02:15 AM EST / 2018.01.24 0715 UTC
Wind: Calm:0
Visibility: 10 mile(s):0
Sky conditions: overcast
Temperature: 48 F (9 C)
Dew Point: 44 F (7 C)
Relative Humidity: 87%
Pressure (altimeter): 30.18 in. Hg (1022 hPa)
ob: KCIC 240715Z AUTO 00000KT 10SM OVC028 09/07 A3018 RMK AO1
cycle: 7

Station Type Date Time Source
KCIC TAF UTC NOAA

Error!


Example: see airport list